sensor_id;sensor_type;location;lat;lon;timestamp;temperature;humidity
3548;DHT22;1788;49.400;11.092;2023-03-01T00:02:16;2.10;46.40
3548;DHT22;1788;49.400;11.092;2023-03-01T00:04:43;2.10;46.40
3548;DHT22;1788;49.400;11.092;2023-03-01T00:07:10;2.10;46.40
3548;DHT22;1788;49.400;11.092;2023-03-01T00:09:37;2.10;46.50
3548;DHT22;1788;49.400;11.092;2023-03-01T00:12:05;2.10;46.70
3548;DHT22;1788;49.400;11.092;2023-03-01T00:14:31;2.10;46.70
3548;DHT22;1788;49.400;11.092;2023-03-01T00:16:59;2.10;47.40
3548;DHT22;1788;49.400;11.092;2023-03-01T00:19:25;2.10;46.80
3548;DHT22;1788;49.400;11.092;2023-03-01T00:21:52;2.10;46.80
3548;DHT22;1788;49.400;11.092;2023-03-01T00:24:19;2.20;47.00
3548;DHT22;1788;49.400;11.092;2023-03-01T00:26:45;2.20;47.00
3548;DHT22;1788;49.400;11.092;2023-03-01T00:29:12;2.20;47.10
3548;DHT22;1788;49.400;11.092;2023-03-01T00:31:38;2.30;47.10
3548;DHT22;1788;49.400;11.092;2023-03-01T00:34:05;2.20;47.10
3548;DHT22;1788;49.400;11.092;2023-03-01T00:36:33;2.30;47.20
3548;DHT22;1788;49.400;11.092;2023-03-01T00:38:59;2.30;47.30
3548;DHT22;1788;49.400;11.092;2023-03-01T00:41:26;2.30;47.20
3548;DHT22;1788;49.400;11.092;2023-03-01T00:43:53;2.40;47.30
3548;DHT22;1788;49.400;11.092;2023-03-01T00:46:21;2.30;47.30
3548;DHT22;1788;49.400;11.092;2023-03-01T00:48:46;2.40;47.30
3548;DHT22;1788;49.400;11.092;2023-03-01T00:51:14;2.40;47.30
3548;DHT22;1788;49.400;11.092;2023-03-01T00:53:40;2.40;47.30
3548;DHT22;1788;49.400;11.092;2023-03-01T00:56:08;2.50;47.50
3548;DHT22;1788;49.400;11.092;2023-03-01T00:58:34;2.50;47.30
3548;DHT22;1788;49.400;11.092;2023-03-01T01:01:07;2.50;47.30
3548;DHT22;1788;49.400;11.092;2023-03-01T01:03:28;2.50;47.30
3548;DHT22;1788;49.400;11.092;2023-03-01T01:05:54;2.50;47.30
3548;DHT22;1788;49.400;11.092;2023-03-01T01:08:21;2.50;47.30
3548;DHT22;1788;49.400;11.092;2023-03-01T01:10:48;2.50;47.30
3548;DHT22;1788;49.400;11.092;2023-03-01T01:13:15;2.50;47.30
3548;DHT22;1788;49.400;11.092;2023-03-01T01:15:42;2.50;47.30
3548;DHT22;1788;49.400;11.092;2023-03-01T01:18:09;2.60;47.50
3548;DHT22;1788;49.400;11.092;2023-03-01T01:20:36;2.50;47.40
3548;DHT22;1788;49.400;11.092;2023-03-01T01:23:05;2.60;47.50
3548;DHT22;1788;49.400;11.092;2023-03-01T01:25:30;2.60;47.50
3548;DHT22;1788;49.400;11.092;2023-03-01T01:27:56;2.60;47.40
3548;DHT22;1788;49.400;11.092;2023-03-01T01:30:23;2.60;47.40
3548;DHT22;1788;49.400;11.092;2023-03-01T01:32:50;2.70;47.40
3548;DHT22;1788;49.400;11.092;2023-03-01T01:35:17;2.70;47.40
3548;DHT22;1788;49.400;11.092;2023-03-01T01:37:44;2.70;47.40
3548;DHT22;1788;49.400;11.092;2023-03-01T01:40:12;2.70;47.40
3548;DHT22;1788;49.400;11.092;2023-03-01T01:42:39;2.70;47.30
3548;DHT22;1788;49.400;11.092;2023-03-01T01:47:33;2.70;47.50
3548;DHT22;1788;49.400;11.092;2023-03-01T01:50:00;2.70;47.20
3548;DHT22;1788;49.400;11.092;2023-03-01T01:52:27;2.70;47.20
3548;DHT22;1788;49.400;11.092;2023-03-01T01:57:22;2.70;47.10
3548;DHT22;1788;49.400;11.092;2023-03-01T01:59:48;2.70;47.10
3548;DHT22;1788;49.400;11.092;2023-03-01T02:02:13;2.70;47.10
3548;DHT22;1788;49.400;11.092;2023-03-01T02:04:39;2.70;47.10
3548;DHT22;1788;49.400;11.092;2023-03-01T02:07:09;2.60;47.10
3548;DHT22;1788;49.400;11.092;2023-03-01T02:09:33;2.60;47.10
3548;DHT22;1788;49.400;11.092;2023-03-01T02:11:59;2.60;47.20
3548;DHT22;1788;49.400;11.092;2023-03-01T02:14:26;2.60;47.20
3548;DHT22;1788;49.400;11.092;2023-03-01T02:16:53;2.60;47.20
3548;DHT22;1788;49.400;11.092;2023-03-01T02:21:56;2.50;47.30
3548;DHT22;1788;49.400;11.092;2023-03-01T02:26:40;2.50;47.40
3548;DHT22;1788;49.400;11.092;2023-03-01T02:29:06;2.40;47.40
3548;DHT22;1788;49.400;11.092;2023-03-01T02:31:32;2.50;47.50
3548;DHT22;1788;49.400;11.092;2023-03-01T02:33:59;2.50;47.50
3548;DHT22;1788;49.400;11.092;2023-03-01T02:36:28;2.50;48.00
3548;DHT22;1788;49.400;11.092;2023-03-01T02:38:53;2.50;47.50
3548;DHT22;1788;49.400;11.092;2023-03-01T02:41:19;2.50;47.50
3548;DHT22;1788;49.400;11.092;2023-03-01T02:43:46;2.50;47.50
3548;DHT22;1788;49.400;11.092;2023-03-01T02:51:11;2.40;47.60
3548;DHT22;1788;49.400;11.092;2023-03-01T02:56:02;2.40;47.60
3548;DHT22;1788;49.400;11.092;2023-03-01T02:58:29;2.40;47.60
3548;DHT22;1788;49.400;11.092;2023-03-01T03:00:56;2.40;47.60
3548;DHT22;1788;49.400;11.092;2023-03-01T03:03:25;2.40;47.60
3548;DHT22;1788;49.400;11.092;2023-03-01T03:05:52;2.40;48.20
3548;DHT22;1788;49.400;11.092;2023-03-01T03:08:19;2.40;47.60
3548;DHT22;1788;49.400;11.092;2023-03-01T03:10:46;2.40;48.20
3548;DHT22;1788;49.400;11.092;2023-03-01T03:13:13;2.40;47.70
3548;DHT22;1788;49.400;11.092;2023-03-01T03:15:40;2.40;47.70
3548;DHT22;1788;49.400;11.092;2023-03-01T03:20:33;2.40;47.70
3548;DHT22;1788;49.400;11.092;2023-03-01T03:23:00;2.40;47.70
3548;DHT22;1788;49.400;11.092;2023-03-01T03:25:27;2.40;47.70
3548;DHT22;1788;49.400;11.092;2023-03-01T03:27:54;2.40;48.20
3548;DHT22;1788;49.400;11.092;2023-03-01T03:30:20;2.40;47.70
3548;DHT22;1788;49.400;11.092;2023-03-01T03:32:48;2.40;48.00
3548;DHT22;1788;49.400;11.092;2023-03-01T03:35:15;2.40;47.70
3548;DHT22;1788;49.400;11.092;2023-03-01T03:37:42;2.40;47.60
3548;DHT22;1788;49.400;11.092;2023-03-01T03:40:08;2.40;47.60
3548;DHT22;1788;49.400;11.092;2023-03-01T03:42:35;2.40;47.70
3548;DHT22;1788;49.400;11.092;2023-03-01T03:45:02;2.40;47.70
3548;DHT22;1788;49.400;11.092;2023-03-01T03:47:28;2.40;47.70
3548;DHT22;1788;49.400;11.092;2023-03-01T03:49:55;2.40;47.70
3548;DHT22;1788;49.400;11.092;2023-03-01T03:52:22;2.30;47.70
3548;DHT22;1788;49.400;11.092;2023-03-01T03:54:49;2.30;47.70
3548;DHT22;1788;49.400;11.092;2023-03-01T03:57:16;2.20;47.80
3548;DHT22;1788;49.400;11.092;2023-03-01T03:59:43;2.20;47.70
3548;DHT22;1788;49.400;11.092;2023-03-01T04:02:09;2.20;47.90
3548;DHT22;1788;49.400;11.092;2023-03-01T04:04:36;2.10;47.90
3548;DHT22;1788;49.400;11.092;2023-03-01T04:07:03;2.10;47.90
3548;DHT22;1788;49.400;11.092;2023-03-01T04:09:30;2.10;48.00
3548;DHT22;1788;49.400;11.092;2023-03-01T04:11:57;2.10;48.00
3548;DHT22;1788;49.400;11.092;2023-03-01T04:14:24;2.10;48.00
3548;DHT22;1788;49.400;11.092;2023-03-01T04:16:51;2.00;47.90
3548;DHT22;1788;49.400;11.092;2023-03-01T04:19:18;2.10;48.10
3548;DHT22;1788;49.400;11.092;2023-03-01T04:21:45;2.00;48.00
3548;DHT22;1788;49.400;11.092;2023-03-01T04:24:12;2.10;48.10
3548;DHT22;1788;49.400;11.092;2023-03-01T04:26:38;2.10;48.10
3548;DHT22;1788;49.400;11.092;2023-03-01T04:29:05;2.10;48.10
3548;DHT22;1788;49.400;11.092;2023-03-01T04:31:32;2.00;48.00
3548;DHT22;1788;49.400;11.092;2023-03-01T04:33:58;2.00;48.00
3548;DHT22;1788;49.400;11.092;2023-03-01T04:36:27;2.00;48.10
3548;DHT22;1788;49.400;11.092;2023-03-01T04:38:53;2.00;48.10
3548;DHT22;1788;49.400;11.092;2023-03-01T04:41:20;2.00;48.10
3548;DHT22;1788;49.400;11.092;2023-03-01T04:43:46;2.00;48.20
3548;DHT22;1788;49.400;11.092;2023-03-01T04:46:13;2.00;48.20
3548;DHT22;1788;49.400;11.092;2023-03-01T04:48:40;1.90;48.10
3548;DHT22;1788;49.400;11.092;2023-03-01T04:51:07;2.00;48.20
3548;DHT22;1788;49.400;11.092;2023-03-01T04:53:34;1.90;48.10
3548;DHT22;1788;49.400;11.092;2023-03-01T04:56:00;1.90;48.10
3548;DHT22;1788;49.400;11.092;2023-03-01T04:58:27;1.90;48.10
3548;DHT22;1788;49.400;11.092;2023-03-01T05:00:54;1.90;48.10
3548;DHT22;1788;49.400;11.092;2023-03-01T05:03:22;1.90;48.20
3548;DHT22;1788;49.400;11.092;2023-03-01T05:05:49;1.90;48.10
3548;DHT22;1788;49.400;11.092;2023-03-01T05:08:15;1.90;48.20
3548;DHT22;1788;49.400;11.092;2023-03-01T05:10:43;1.80;48.20
3548;DHT22;1788;49.400;11.092;2023-03-01T05:13:10;1.80;48.20
3548;DHT22;1788;49.400;11.092;2023-03-01T05:15:37;1.80;48.20
3548;DHT22;1788;49.400;11.092;2023-03-01T05:18:05;1.80;48.30
3548;DHT22;1788;49.400;11.092;2023-03-01T05:20:31;1.80;48.30
3548;DHT22;1788;49.400;11.092;2023-03-01T05:22:58;1.70;48.20
3548;DHT22;1788;49.400;11.092;2023-03-01T05:25:25;1.70;48.20
3548;DHT22;1788;49.400;11.092;2023-03-01T05:27:52;1.70;48.20
3548;DHT22;1788;49.400;11.092;2023-03-01T05:30:18;1.70;48.30
3548;DHT22;1788;49.400;11.092;2023-03-01T05:32:46;1.70;48.30
3548;DHT22;1788;49.400;11.092;2023-03-01T05:35:12;1.70;48.40
3548;DHT22;1788;49.400;11.092;2023-03-01T05:37:40;1.70;48.40
3548;DHT22;1788;49.400;11.092;2023-03-01T05:40:07;1.70;48.40
3548;DHT22;1788;49.400;11.092;2023-03-01T05:42:33;1.70;48.40
3548;DHT22;1788;49.400;11.092;2023-03-01T05:45:01;1.70;48.40
3548;DHT22;1788;49.400;11.092;2023-03-01T05:47:30;1.60;48.30
3548;DHT22;1788;49.400;11.092;2023-03-01T05:49:57;1.60;48.30
3548;DHT22;1788;49.400;11.092;2023-03-01T05:52:24;1.70;48.40
3548;DHT22;1788;49.400;11.092;2023-03-01T05:54:50;1.60;48.40
3548;DHT22;1788;49.400;11.092;2023-03-01T05:57:17;1.60;48.40
3548;DHT22;1788;49.400;11.092;2023-03-01T05:59:43;1.60;48.40
3548;DHT22;1788;49.400;11.092;2023-03-01T06:02:10;1.70;48.50
3548;DHT22;1788;49.400;11.092;2023-03-01T06:04:37;1.70;48.40
3548;DHT22;1788;49.400;11.092;2023-03-01T06:07:04;1.70;48.40
3548;DHT22;1788;49.400;11.092;2023-03-01T06:09:30;1.70;48.40
3548;DHT22;1788;49.400;11.092;2023-03-01T06:11:57;1.60;48.40
3548;DHT22;1788;49.400;11.092;2023-03-01T06:14:24;1.60;48.40
3548;DHT22;1788;49.400;11.092;2023-03-01T06:16:50;1.60;48.40
3548;DHT22;1788;49.400;11.092;2023-03-01T06:19:17;1.60;48.50
3548;DHT22;1788;49.400;11.092;2023-03-01T06:21:43;1.60;48.50
3548;DHT22;1788;49.400;11.092;2023-03-01T06:24:11;1.60;48.50
3548;DHT22;1788;49.400;11.092;2023-03-01T06:26:38;1.60;48.50
3548;DHT22;1788;49.400;11.092;2023-03-01T06:29:04;1.60;48.50
3548;DHT22;1788;49.400;11.092;2023-03-01T06:31:31;1.60;48.60
3548;DHT22;1788;49.400;11.092;2023-03-01T06:33:58;1.70;48.70
3548;DHT22;1788;49.400;11.092;2023-03-01T06:36:25;1.70;49.30
3548;DHT22;1788;49.400;11.092;2023-03-01T06:38:52;1.70;48.70
3548;DHT22;1788;49.400;11.092;2023-03-01T06:41:19;1.80;48.80
3548;DHT22;1788;49.400;11.092;2023-03-01T06:43:46;1.80;48.80
3548;DHT22;1788;49.400;11.092;2023-03-01T06:46:13;1.90;48.80
3548;DHT22;1788;49.400;11.092;2023-03-01T06:48:41;1.90;48.80
3548;DHT22;1788;49.400;11.092;2023-03-01T06:51:08;2.00;48.40
3548;DHT22;1788;49.400;11.092;2023-03-01T06:53:35;1.90;48.70
3548;DHT22;1788;49.400;11.092;2023-03-01T06:56:01;2.00;48.80
3548;DHT22;1788;49.400;11.092;2023-03-01T06:58:28;2.00;48.80
3548;DHT22;1788;49.400;11.092;2023-03-01T07:00:55;2.00;48.80
3548;DHT22;1788;49.400;11.092;2023-03-01T07:03:21;2.10;48.90
3548;DHT22;1788;49.400;11.092;2023-03-01T07:05:48;2.10;48.40
3548;DHT22;1788;49.400;11.092;2023-03-01T07:08:14;2.20;49.00
3548;DHT22;1788;49.400;11.092;2023-03-01T07:10:41;2.20;49.00
3548;DHT22;1788;49.400;11.092;2023-03-01T07:13:08;2.40;49.50
3548;DHT22;1788;49.400;11.092;2023-03-01T07:15:35;2.40;49.10
3548;DHT22;1788;49.400;11.092;2023-03-01T07:18:02;2.60;49.10
3548;DHT22;1788;49.400;11.092;2023-03-01T07:20:29;2.60;49.10
3548;DHT22;1788;49.400;11.092;2023-03-01T07:22:56;2.70;49.10
3548;DHT22;1788;49.400;11.092;2023-03-01T07:25:22;2.80;49.00
3548;DHT22;1788;49.400;11.092;2023-03-01T07:27:50;2.90;48.90
3548;DHT22;1788;49.400;11.092;2023-03-01T07:30:17;3.10;48.90
3548;DHT22;1788;49.400;11.092;2023-03-01T07:32:44;3.10;48.80
3548;DHT22;1788;49.400;11.092;2023-03-01T07:35:11;3.30;48.80
3548;DHT22;1788;49.400;11.092;2023-03-01T07:37:37;3.40;48.80
3548;DHT22;1788;49.400;11.092;2023-03-01T07:40:04;3.50;48.80
3548;DHT22;1788;49.400;11.092;2023-03-01T07:42:31;3.70;48.70
3548;DHT22;1788;49.400;11.092;2023-03-01T07:44:58;3.70;48.70
3548;DHT22;1788;49.400;11.092;2023-03-01T07:47:24;3.80;48.70
3548;DHT22;1788;49.400;11.092;2023-03-01T07:49:51;3.90;48.60
3548;DHT22;1788;49.400;11.092;2023-03-01T07:52:18;4.00;48.60
3548;DHT22;1788;49.400;11.092;2023-03-01T07:54:44;4.20;48.60
3548;DHT22;1788;49.400;11.092;2023-03-01T07:57:11;4.30;48.50
3548;DHT22;1788;49.400;11.092;2023-03-01T07:59:38;4.40;48.50
3548;DHT22;1788;49.400;11.092;2023-03-01T08:02:04;4.50;48.50
3548;DHT22;1788;49.400;11.092;2023-03-01T08:04:31;4.60;48.50
3548;DHT22;1788;49.400;11.092;2023-03-01T08:06:57;4.60;48.30
3548;DHT22;1788;49.400;11.092;2023-03-01T08:09:24;4.70;48.30
3548;DHT22;1788;49.400;11.092;2023-03-01T08:11:51;4.80;48.30
3548;DHT22;1788;49.400;11.092;2023-03-01T08:14:18;5.00;48.10
3548;DHT22;1788;49.400;11.092;2023-03-01T08:16:45;5.00;48.10
3548;DHT22;1788;49.400;11.092;2023-03-01T08:19:11;5.10;48.00
3548;DHT22;1788;49.400;11.092;2023-03-01T08:21:38;5.10;47.90
3548;DHT22;1788;49.400;11.092;2023-03-01T08:24:05;5.20;47.90
3548;DHT22;1788;49.400;11.092;2023-03-01T08:26:32;5.30;47.80
3548;DHT22;1788;49.400;11.092;2023-03-01T08:28:59;5.40;47.80
3548;DHT22;1788;49.400;11.092;2023-03-01T08:31:27;5.50;47.80
3548;DHT22;1788;49.400;11.092;2023-03-01T08:33:55;5.70;47.60
3548;DHT22;1788;49.400;11.092;2023-03-01T08:36:21;5.70;47.60
3548;DHT22;1788;49.400;11.092;2023-03-01T08:38:47;5.80;47.40
3548;DHT22;1788;49.400;11.092;2023-03-01T08:41:14;6.00;47.40
3548;DHT22;1788;49.400;11.092;2023-03-01T08:43:41;6.30;47.20
3548;DHT22;1788;49.400;11.092;2023-03-01T08:46:07;6.30;47.20
3548;DHT22;1788;49.400;11.092;2023-03-01T08:48:34;6.40;47.00
3548;DHT22;1788;49.400;11.092;2023-03-01T08:53:27;6.80;46.80
3548;DHT22;1788;49.400;11.092;2023-03-01T08:55:54;7.10;46.80
3548;DHT22;1788;49.400;11.092;2023-03-01T08:58:21;7.30;46.60
3548;DHT22;1788;49.400;11.092;2023-03-01T09:00:47;7.40;46.30
3548;DHT22;1788;49.400;11.092;2023-03-01T09:03:14;7.60;46.10
3548;DHT22;1788;49.400;11.092;2023-03-01T09:05:41;7.90;45.50
3548;DHT22;1788;49.400;11.092;2023-03-01T09:08:08;7.80;45.40
3548;DHT22;1788;49.400;11.092;2023-03-01T09:10:37;8.00;45.00
3548;DHT22;1788;49.400;11.092;2023-03-01T09:13:02;8.00;45.00
3548;DHT22;1788;49.400;11.092;2023-03-01T09:15:28;8.20;44.90
3548;DHT22;1788;49.400;11.092;2023-03-01T09:17:55;8.30;44.70
3548;DHT22;1788;49.400;11.092;2023-03-01T09:20:22;8.30;44.50
3548;DHT22;1788;49.400;11.092;2023-03-01T09:22:48;8.40;44.30
3548;DHT22;1788;49.400;11.092;2023-03-01T09:25:15;8.50;44.20
3548;DHT22;1788;49.400;11.092;2023-03-01T09:27:42;8.60;44.10
3548;DHT22;1788;49.400;11.092;2023-03-01T09:30:09;8.70;44.00
3548;DHT22;1788;49.400;11.092;2023-03-01T09:32:35;8.70;43.80
3548;DHT22;1788;49.400;11.092;2023-03-01T09:35:02;8.80;43.70
3548;DHT22;1788;49.400;11.092;2023-03-01T09:37:30;8.80;43.20
3548;DHT22;1788;49.400;11.092;2023-03-01T09:39:56;8.80;43.10
3548;DHT22;1788;49.400;11.092;2023-03-01T09:42:23;8.80;43.10
3548;DHT22;1788;49.400;11.092;2023-03-01T09:44:51;8.90;43.10
3548;DHT22;1788;49.400;11.092;2023-03-01T09:47:17;9.00;43.10
3548;DHT22;1788;49.400;11.092;2023-03-01T09:49:42;9.10;43.00
3548;DHT22;1788;49.400;11.092;2023-03-01T09:54:36;9.20;42.50
3548;DHT22;1788;49.400;11.092;2023-03-01T10:01:58;9.30;42.20
3548;DHT22;1788;49.400;11.092;2023-03-01T10:09:16;9.50;41.90
3548;DHT22;1788;49.400;11.092;2023-03-01T10:14:15;9.60;41.70
3548;DHT22;1788;49.400;11.092;2023-03-01T10:19:05;9.80;41.60
3548;DHT22;1788;49.400;11.092;2023-03-01T10:21:32;9.80;41.40
3548;DHT22;1788;49.400;11.092;2023-03-01T10:24:01;9.90;41.40
3548;DHT22;1788;49.400;11.092;2023-03-01T10:31:19;10.10;40.20
3548;DHT22;1788;49.400;11.092;2023-03-01T10:33:45;10.20;40.30
3548;DHT22;1788;49.400;11.092;2023-03-01T10:36:11;10.30;40.00
3548;DHT22;1788;49.400;11.092;2023-03-01T10:41:06;10.50;39.90
3548;DHT22;1788;49.400;11.092;2023-03-01T10:45:58;10.80;39.70
3548;DHT22;1788;49.400;11.092;2023-03-01T10:48:25;10.90;39.50
3548;DHT22;1788;49.400;11.092;2023-03-01T10:53:20;10.80;39.00
3548;DHT22;1788;49.400;11.092;2023-03-01T10:55:46;10.80;38.90
3548;DHT22;1788;49.400;11.092;2023-03-01T11:05:34;10.90;38.60
3548;DHT22;1788;49.400;11.092;2023-03-01T11:08:01;11.10;38.60
3548;DHT22;1788;49.400;11.092;2023-03-01T11:10:30;11.10;38.60
3548;DHT22;1788;49.400;11.092;2023-03-01T11:15:24;11.20;38.30
3548;DHT22;1788;49.400;11.092;2023-03-01T11:17:49;11.20;38.30
3548;DHT22;1788;49.400;11.092;2023-03-01T11:25:11;11.30;38.10
3548;DHT22;1788;49.400;11.092;2023-03-01T11:27:38;11.40;38.10
3548;DHT22;1788;49.400;11.092;2023-03-01T11:42:22;11.60;37.60
3548;DHT22;1788;49.400;11.092;2023-03-01T11:47:15;12.00;37.60
3548;DHT22;1788;49.400;11.092;2023-03-01T11:49:43;12.30;37.60
3548;DHT22;1788;49.400;11.092;2023-03-01T12:19:01;14.00;36.00
3548;DHT22;1788;49.400;11.092;2023-03-01T12:26:26;14.30;35.70
3548;DHT22;1788;49.400;11.092;2023-03-01T12:28:50;14.50;35.60
3548;DHT22;1788;49.400;11.092;2023-03-01T12:43:34;18.10;32.20
3548;DHT22;1788;49.400;11.092;2023-03-01T12:50:52;19.50;31.00
3548;DHT22;1788;49.400;11.092;2023-03-01T12:55:45;20.60;30.20
3548;DHT22;1788;49.400;11.092;2023-03-01T12:58:20;21.30;29.70
3548;DHT22;1788;49.400;11.092;2023-03-01T13:00:41;21.30;29.70
3548;DHT22;1788;49.400;11.092;2023-03-01T13:03:14;20.00;30.10
3548;DHT22;1788;49.400;11.092;2023-03-01T13:13:08;17.90;31.10
3548;DHT22;1788;49.400;11.092;2023-03-01T13:15:26;17.80;31.50
3548;DHT22;1788;49.400;11.092;2023-03-01T13:20:16;16.40;31.50
3548;DHT22;1788;49.400;11.092;2023-03-01T13:22:42;15.80;31.80
3548;DHT22;1788;49.400;11.092;2023-03-01T13:27:35;14.80;32.20
3548;DHT22;1788;49.400;11.092;2023-03-01T13:30:02;14.50;32.40
3548;DHT22;1788;49.400;11.092;2023-03-01T13:32:30;15.20;32.40
3548;DHT22;1788;49.400;11.092;2023-03-01T13:37:24;15.70;31.70
3548;DHT22;1788;49.400;11.092;2023-03-01T13:39:50;15.60;31.60
3548;DHT22;1788;49.400;11.092;2023-03-01T13:44:44;15.40;32.50
3548;DHT22;1788;49.400;11.092;2023-03-01T13:52:05;18.40;30.60
3548;DHT22;1788;49.400;11.092;2023-03-01T13:54:32;18.40;30.60
3548;DHT22;1788;49.400;11.092;2023-03-01T13:57:00;19.40;29.90
3548;DHT22;1788;49.400;11.092;2023-03-01T13:59:26;19.30;29.80
3548;DHT22;1788;49.400;11.092;2023-03-01T14:01:54;20.20;29.60
3548;DHT22;1788;49.400;11.092;2023-03-01T14:06:47;21.10;29.20
3548;DHT22;1788;49.400;11.092;2023-03-01T14:19:05;22.10;29.00
3548;DHT22;1788;49.400;11.092;2023-03-01T14:21:29;22.60;28.90
3548;DHT22;1788;49.400;11.092;2023-03-01T14:23:56;22.50;28.80
3548;DHT22;1788;49.400;11.092;2023-03-01T14:26:23;22.20;28.50
3548;DHT22;1788;49.400;11.092;2023-03-01T14:28:50;22.20;28.50
3548;DHT22;1788;49.400;11.092;2023-03-01T14:33:43;22.10;28.90
3548;DHT22;1788;49.400;11.092;2023-03-01T14:36:10;22.10;28.80
3548;DHT22;1788;49.400;11.092;2023-03-01T14:41:05;21.60;28.90
3548;DHT22;1788;49.400;11.092;2023-03-01T14:43:31;21.50;29.60
3548;DHT22;1788;49.400;11.092;2023-03-01T14:45:57;21.50;29.20
3548;DHT22;1788;49.400;11.092;2023-03-01T14:48:24;21.60;29.00
3548;DHT22;1788;49.400;11.092;2023-03-01T14:50:51;21.60;29.00
3548;DHT22;1788;49.400;11.092;2023-03-01T14:53:19;21.30;29.00
3548;DHT22;1788;49.400;11.092;2023-03-01T14:55:46;21.30;28.90
3548;DHT22;1788;49.400;11.092;2023-03-01T14:58:13;20.80;28.90
3548;DHT22;1788;49.400;11.092;2023-03-01T15:05:34;20.10;29.10
3548;DHT22;1788;49.400;11.092;2023-03-01T15:08:02;20.00;29.00
3548;DHT22;1788;49.400;11.092;2023-03-01T15:10:28;19.80;29.10
3548;DHT22;1788;49.400;11.092;2023-03-01T15:12:54;19.70;29.20
3548;DHT22;1788;49.400;11.092;2023-03-01T15:20:16;19.30;29.30
3548;DHT22;1788;49.400;11.092;2023-03-01T15:22:42;19.10;29.30
3548;DHT22;1788;49.400;11.092;2023-03-01T15:25:13;19.00;29.40
3548;DHT22;1788;49.400;11.092;2023-03-01T15:27:34;18.70;29.50
3548;DHT22;1788;49.400;11.092;2023-03-01T15:30:01;18.50;29.60
3548;DHT22;1788;49.400;11.092;2023-03-01T15:32:29;18.30;29.70
3548;DHT22;1788;49.400;11.092;2023-03-01T15:34:54;18.00;29.70
3548;DHT22;1788;49.400;11.092;2023-03-01T15:44:41;16.40;30.10
3548;DHT22;1788;49.400;11.092;2023-03-01T15:47:22;15.40;30.60
3548;DHT22;1788;49.400;11.092;2023-03-01T15:52:02;14.40;31.00
3548;DHT22;1788;49.400;11.092;2023-03-01T15:54:29;14.40;30.90
3548;DHT22;1788;49.400;11.092;2023-03-01T15:56:56;13.80;31.50
3548;DHT22;1788;49.400;11.092;2023-03-01T15:59:23;13.70;31.40
3548;DHT22;1788;49.400;11.092;2023-03-01T16:01:50;13.50;31.90
3548;DHT22;1788;49.400;11.092;2023-03-01T16:04:18;13.50;31.90
3548;DHT22;1788;49.400;11.092;2023-03-01T16:06:44;13.40;32.70
3548;DHT22;1788;49.400;11.092;2023-03-01T16:09:11;13.40;32.20
3548;DHT22;1788;49.400;11.092;2023-03-01T16:11:38;13.20;32.50
3548;DHT22;1788;49.400;11.092;2023-03-01T16:14:05;13.10;32.40
3548;DHT22;1788;49.400;11.092;2023-03-01T16:16:32;12.80;33.20
3548;DHT22;1788;49.400;11.092;2023-03-01T16:18:59;12.70;32.60
3548;DHT22;1788;49.400;11.092;2023-03-01T16:21:26;12.30;33.20
3548;DHT22;1788;49.400;11.092;2023-03-01T16:23:53;12.40;33.10
3548;DHT22;1788;49.400;11.092;2023-03-01T16:26:19;12.20;33.20
3548;DHT22;1788;49.400;11.092;2023-03-01T16:28:46;12.10;33.50
3548;DHT22;1788;49.400;11.092;2023-03-01T16:31:15;11.90;33.60
3548;DHT22;1788;49.400;11.092;2023-03-01T16:33:39;11.70;33.80
3548;DHT22;1788;49.400;11.092;2023-03-01T16:36:08;11.50;34.20
3548;DHT22;1788;49.400;11.092;2023-03-01T16:38:33;11.50;34.20
3548;DHT22;1788;49.400;11.092;2023-03-01T16:41:01;11.30;35.00
3548;DHT22;1788;49.400;11.092;2023-03-01T16:43:28;11.20;34.30
3548;DHT22;1788;49.400;11.092;2023-03-01T16:45:55;11.00;34.60
3548;DHT22;1788;49.400;11.092;2023-03-01T16:48:21;11.00;34.60
3548;DHT22;1788;49.400;11.092;2023-03-01T16:53:15;10.80;34.80
3548;DHT22;1788;49.400;11.092;2023-03-01T16:55:42;10.70;35.00
3548;DHT22;1788;49.400;11.092;2023-03-01T16:58:08;10.60;35.10
3548;DHT22;1788;49.400;11.092;2023-03-01T17:00:35;10.40;35.10
3548;DHT22;1788;49.400;11.092;2023-03-01T17:03:02;10.30;35.30
3548;DHT22;1788;49.400;11.092;2023-03-01T17:05:29;10.10;35.60
3548;DHT22;1788;49.400;11.092;2023-03-01T17:07:56;10.10;35.60
3548;DHT22;1788;49.400;11.092;2023-03-01T17:10:22;10.00;35.70
3548;DHT22;1788;49.400;11.092;2023-03-01T17:12:49;9.90;36.60
3548;DHT22;1788;49.400;11.092;2023-03-01T17:15:17;9.80;36.70
3548;DHT22;1788;49.400;11.092;2023-03-01T17:17:43;9.70;36.80
3548;DHT22;1788;49.400;11.092;2023-03-01T17:20:10;9.70;37.00
3548;DHT22;1788;49.400;11.092;2023-03-01T17:22:36;9.60;37.10
3548;DHT22;1788;49.400;11.092;2023-03-01T17:25:06;9.40;37.40
3548;DHT22;1788;49.400;11.092;2023-03-01T17:27:31;9.40;37.40
3548;DHT22;1788;49.400;11.092;2023-03-01T17:29:57;9.40;37.50
3548;DHT22;1788;49.400;11.092;2023-03-01T17:32:24;9.30;37.60
3548;DHT22;1788;49.400;11.092;2023-03-01T17:34:51;9.20;37.70
3548;DHT22;1788;49.400;11.092;2023-03-01T17:37:18;9.10;37.90
3548;DHT22;1788;49.400;11.092;2023-03-01T17:39:45;9.10;37.90
3548;DHT22;1788;49.400;11.092;2023-03-01T17:42:11;9.10;38.00
3548;DHT22;1788;49.400;11.092;2023-03-01T17:44:39;9.00;38.10
3548;DHT22;1788;49.400;11.092;2023-03-01T17:47:07;8.90;38.10
3548;DHT22;1788;49.400;11.092;2023-03-01T17:49:33;8.90;38.30
3548;DHT22;1788;49.400;11.092;2023-03-01T17:52:00;8.80;38.30
3548;DHT22;1788;49.400;11.092;2023-03-01T17:54:26;8.80;38.50
3548;DHT22;1788;49.400;11.092;2023-03-01T17:56:53;8.80;38.60
3548;DHT22;1788;49.400;11.092;2023-03-01T17:59:20;8.70;38.60
3548;DHT22;1788;49.400;11.092;2023-03-01T18:01:46;8.70;38.70
3548;DHT22;1788;49.400;11.092;2023-03-01T18:04:13;8.70;38.80
3548;DHT22;1788;49.400;11.092;2023-03-01T18:06:40;8.60;38.80
3548;DHT22;1788;49.400;11.092;2023-03-01T18:09:06;8.60;38.90
3548;DHT22;1788;49.400;11.092;2023-03-01T18:11:33;8.50;38.90
3548;DHT22;1788;49.400;11.092;2023-03-01T18:13:59;8.50;39.00
3548;DHT22;1788;49.400;11.092;2023-03-01T18:16:26;8.50;39.10
3548;DHT22;1788;49.400;11.092;2023-03-01T18:18:53;8.50;39.30
3548;DHT22;1788;49.400;11.092;2023-03-01T18:21:19;8.50;39.30
3548;DHT22;1788;49.400;11.092;2023-03-01T18:23:46;8.50;39.40
3548;DHT22;1788;49.400;11.092;2023-03-01T18:26:13;8.50;39.40
3548;DHT22;1788;49.400;11.092;2023-03-01T18:28:39;8.40;39.40
3548;DHT22;1788;49.400;11.092;2023-03-01T18:31:07;8.30;40.20
3548;DHT22;1788;49.400;11.092;2023-03-01T18:33:35;8.30;39.60
3548;DHT22;1788;49.400;11.092;2023-03-01T18:36:01;8.30;39.70
3548;DHT22;1788;49.400;11.092;2023-03-01T18:38:28;8.20;39.70
3548;DHT22;1788;49.400;11.092;2023-03-01T18:40:55;8.20;39.90
3548;DHT22;1788;49.400;11.092;2023-03-01T18:43:22;8.10;39.80
3548;DHT22;1788;49.400;11.092;2023-03-01T18:45:54;8.10;40.00
3548;DHT22;1788;49.400;11.092;2023-03-01T18:48:15;8.00;40.10
3548;DHT22;1788;49.400;11.092;2023-03-01T18:50:42;8.00;40.20
3548;DHT22;1788;49.400;11.092;2023-03-01T18:53:08;8.00;40.30
3548;DHT22;1788;49.400;11.092;2023-03-01T18:55:36;7.90;40.30
3548;DHT22;1788;49.400;11.092;2023-03-01T18:58:03;7.90;40.30
3548;DHT22;1788;49.400;11.092;2023-03-01T19:00:29;7.90;40.40
3548;DHT22;1788;49.400;11.092;2023-03-01T19:02:57;7.90;40.40
3548;DHT22;1788;49.400;11.092;2023-03-01T19:05:22;7.90;40.50
3548;DHT22;1788;49.400;11.092;2023-03-01T19:07:49;7.90;40.50